createdAt,value
2018-04-02T00:00:09.678Z,68.94
2018-04-02T00:02:39.752Z,69.79
2018-04-02T00:05:08.829Z,68.61
2018-04-02T00:07:37.966Z,67.37
2018-04-02T00:10:10.211Z,67.85
2018-04-02T00:12:39.562Z,67.85
2018-04-02T00:15:08.647Z,68.18
2018-04-02T00:17:37.702Z,66.91
2018-04-02T00:20:07.872Z,68.71
2018-04-02T00:22:36.937Z,70.32
2018-04-02T00:25:06.514Z,70.32
2018-04-02T00:27:35.637Z,70.85
2018-04-02T00:30:04.914Z,71.66
2018-04-02T00:32:34.015Z,69.26
2018-04-02T00:35:03.158Z,69.09
2018-04-02T00:37:32.196Z,68.57
2018-04-02T00:40:01.561Z,68.52
2018-04-02T00:42:30.738Z,68.77
2018-04-02T00:45:00.475Z,69.89
2018-04-02T00:47:29.544Z,70.72
2018-04-02T00:49:58.642Z,69.73
2018-04-02T00:52:27.812Z,68.74
2018-04-02T00:54:59.894Z,68.92
2018-04-02T00:57:29.324Z,69.16
2018-04-02T00:59:58.382Z,69.85
2018-04-02T01:02:27.626Z,68.57
2018-04-02T01:04:56.759Z,65.08
2018-04-02T01:07:26.027Z,63.32
2018-04-02T01:09:55.098Z,62.27
2018-04-02T01:12:24.671Z,63.03
2018-04-02T01:14:54.037Z,64.66
2018-04-02T01:17:23.202Z,67.43
2018-04-02T01:19:52.293Z,68.99
2018-04-02T01:22:21.629Z,70.16
2018-04-02T01:24:53.726Z,70.60
2018-04-02T01:27:22.850Z,70.20
2018-04-02T01:29:51.963Z,65.63
2018-04-02T01:32:21.153Z,62.17
2018-04-02T01:34:50.514Z,63.18
2018-04-02T01:37:19.759Z,64.65
2018-04-02T01:39:48.817Z,67.93
2018-04-02T01:42:18.073Z,67.27
2018-04-02T01:44:47.109Z,66.81
2018-04-02T01:47:16.234Z,67.74
2018-04-02T01:49:45.433Z,69.35
2018-04-02T01:52:14.643Z,71.25
2018-04-02T01:54:43.749Z,70.27
2018-04-02T01:57:12.939Z,71.21
2018-04-02T01:59:42.221Z,71.86
2018-04-02T02:02:11.319Z,72.70
2018-04-02T02:04:40.501Z,72.24
2018-04-02T02:07:09.752Z,72.57
2018-04-02T02:09:38.809Z,72.79
2018-04-02T02:12:07.886Z,74.07
2018-04-02T02:14:36.979Z,74.32
2018-04-02T02:17:06.435Z,74.48
2018-04-02T02:19:35.483Z,74.71
2018-04-02T02:22:07.683Z,75.75
2018-04-02T02:24:36.790Z,74.30
2018-04-02T02:27:05.958Z,73.29
2018-04-02T02:29:35.269Z,73.58
2018-04-02T02:32:04.376Z,72.40
2018-04-02T02:34:33.436Z,71.87
2018-04-02T02:37:02.667Z,71.59
2018-04-02T02:39:31.857Z,71.06
2018-04-02T02:42:01.125Z,70.98
2018-04-02T02:44:30.263Z,70.78
2018-04-02T02:46:59.457Z,69.87
2018-04-02T02:49:28.581Z,70.65
2018-04-02T02:51:57.728Z,71.36
2018-04-02T02:54:26.845Z,71.71
2018-04-02T02:56:56.142Z,71.98
2018-04-02T02:59:25.330Z,72.55
2018-04-02T03:01:54.437Z,72.92
2018-04-02T03:04:23.664Z,73.28
2018-04-02T03:06:52.863Z,73.36
2018-04-02T03:09:22.048Z,73.67
2018-04-02T03:11:51.258Z,73.24
2018-04-02T03:14:20.654Z,72.85
2018-04-02T03:16:52.808Z,73.69
2018-04-02T03:19:22.026Z,73.58
2018-04-02T03:21:54.193Z,74.45
2018-04-02T03:24:23.679Z,74.56
2018-04-02T03:26:52.743Z,75.35
2018-04-02T03:29:22.078Z,75.19
2018-04-02T03:31:51.180Z,74.82
2018-04-02T03:34:20.258Z,74.18
2018-04-02T03:36:49.486Z,74.66
2018-04-02T03:39:18.699Z,74.44
2018-04-02T03:41:47.830Z,73.99
2018-04-02T03:44:16.983Z,73.27
2018-04-02T03:46:46.112Z,72.80
2018-04-02T03:49:15.560Z,71.75
2018-04-02T03:51:44.673Z,71.99
2018-04-02T03:54:13.821Z,72.60
2018-04-02T03:56:42.982Z,72.97
2018-04-02T03:59:12.115Z,74.15
2018-04-02T04:01:41.301Z,74.84
2018-04-02T04:04:10.604Z,74.99
2018-04-02T04:06:39.714Z,74.87
2018-04-02T04:09:11.617Z,75.60
2018-04-02T04:11:40.663Z,75.48
2018-04-02T04:14:09.858Z,75.53
2018-04-02T04:16:39.125Z,75.73
2018-04-02T04:19:08.483Z,76.22
2018-04-02T04:21:37.815Z,76.57
2018-04-02T04:24:06.912Z,76.42
2018-04-02T04:26:36.077Z,72.71
2018-04-02T04:29:05.509Z,72.36
2018-04-02T04:31:34.826Z,70.74
2018-04-02T04:34:03.954Z,70.21
2018-04-02T04:36:33.199Z,68.91
2018-04-02T04:39:05.444Z,68.83
2018-04-02T04:41:34.684Z,67.59
2018-04-02T04:44:03.944Z,68.34
2018-04-02T04:46:33.150Z,69.41
2018-04-02T04:49:02.384Z,69.63
2018-04-02T04:51:31.506Z,70.17
2018-04-02T04:54:00.574Z,70.26
2018-04-02T04:56:29.723Z,66.73
2018-04-02T04:58:59.089Z,66.77
2018-04-02T05:01:28.342Z,66.08
2018-04-02T05:03:57.643Z,66.02
2018-04-02T05:06:26.880Z,66.02
2018-04-02T05:08:55.970Z,66.19
2018-04-02T05:11:25.222Z,65.29
2018-04-02T05:13:54.419Z,64.90
2018-04-02T05:16:24.113Z,65.59
2018-04-02T05:18:53.141Z,65.16
2018-04-02T05:21:22.353Z,65.55
2018-04-02T05:23:51.405Z,65.59
2018-04-02T05:26:20.429Z,66.24
2018-04-02T05:28:51.247Z,66.80
2018-04-02T05:31:20.479Z,68.74
2018-04-02T05:33:50.154Z,70.10
2018-04-02T05:36:19.381Z,69.89
2018-04-02T05:38:51.880Z,68.05
2018-04-02T05:41:21.164Z,66.54
2018-04-02T05:43:50.381Z,64.86
2018-04-02T05:46:19.413Z,64.25
2018-04-02T05:48:48.916Z,60.98
2018-04-02T05:51:18.305Z,61.27
2018-04-02T05:53:47.473Z,60.78
2018-04-02T05:56:16.540Z,61.24
2018-04-02T05:58:45.775Z,61.47
2018-04-02T06:01:14.814Z,61.51
2018-04-02T06:03:43.905Z,61.44
2018-04-02T06:06:13.791Z,60.56
2018-04-02T06:08:43.050Z,59.25
2018-04-02T06:11:12.265Z,59.30
2018-04-02T06:13:41.427Z,58.81
2018-04-02T06:16:11.601Z,59.68
2018-04-02T06:18:40.662Z,60.21
2018-04-02T06:21:09.858Z,60.60
2018-04-02T06:23:38.980Z,60.36
2018-04-02T06:26:08.063Z,59.84
2018-04-02T06:28:37.322Z,59.65
2018-04-02T06:31:06.431Z,57.24
2018-04-02T06:33:35.780Z,56.21
2018-04-02T06:36:04.854Z,54.40
2018-04-02T06:38:34.054Z,54.94
2018-04-02T06:41:06.414Z,54.17
2018-04-02T06:43:35.643Z,55.86
2018-04-02T06:46:04.842Z,52.23
2018-04-02T06:48:33.877Z,54.10
2018-04-02T06:51:06.210Z,55.34
2018-04-02T06:53:38.382Z,55.40
2018-04-02T06:56:07.575Z,55.70
2018-04-02T06:58:36.610Z,57.39
2018-04-02T07:01:05.811Z,53.57
2018-04-02T07:03:38.045Z,52.21
2018-04-02T07:06:07.181Z,49.82
2018-04-02T07:08:39.395Z,46.14
2018-04-02T07:11:08.645Z,46.28
2018-04-02T07:13:37.751Z,46.69
2018-04-02T07:16:06.915Z,48.27
2018-04-02T07:18:36.169Z,46.17
2018-04-02T07:21:05.458Z,46.70
2018-04-02T07:23:35.013Z,46.36
2018-04-02T07:26:04.141Z,45.89
2018-04-02T07:28:33.287Z,46.12
2018-04-02T07:31:02.500Z,46.06
2018-04-02T07:33:31.536Z,46.01
2018-04-02T07:36:01.669Z,45.15
2018-04-02T07:38:30.867Z,45.55
2018-04-02T07:41:00.095Z,45.14
2018-04-02T07:43:29.267Z,45.27
2018-04-02T07:45:58.381Z,44.92
2018-04-02T07:48:27.718Z,43.77
2018-04-02T07:50:56.859Z,43.65
2018-04-02T07:53:26.068Z,42.17
2018-04-02T07:55:55.202Z,43.33
2018-04-02T07:58:24.324Z,42.67
2018-04-02T08:00:53.313Z,43.86
2018-04-02T08:03:25.446Z,43.55
2018-04-02T08:05:55.478Z,43.22
2018-04-02T08:08:24.750Z,45.18
2018-04-02T08:10:53.926Z,46.25
2018-04-02T08:13:23.075Z,45.29
2018-04-02T08:15:52.224Z,45.94
2018-04-02T08:18:21.412Z,44.80
2018-04-02T08:20:50.870Z,44.88
2018-04-02T08:23:20.381Z,45.24
2018-04-02T08:25:49.517Z,46.07
2018-04-02T08:28:18.736Z,45.20
2018-04-02T08:30:47.974Z,45.57
2018-04-02T08:33:17.160Z,45.58
2018-04-02T08:35:46.323Z,46.44
2018-04-02T08:38:15.552Z,46.23
2018-04-02T08:40:44.838Z,45.71
2018-04-02T08:43:14.046Z,43.57
2018-04-02T08:45:43.274Z,45.03
2018-04-02T08:48:18.335Z,45.38
2018-04-02T08:50:47.529Z,44.50
2018-04-02T08:53:16.804Z,43.67
2018-04-02T08:55:46.178Z,43.72
2018-04-02T08:58:15.259Z,42.29
2018-04-02T09:00:44.447Z,41.68
2018-04-02T09:03:13.803Z,41.19
2018-04-02T09:05:42.957Z,40.58
2018-04-02T09:08:12.310Z,42.13
2018-04-02T09:10:41.370Z,42.13
2018-04-02T09:13:10.549Z,40.42
2018-04-02T09:15:42.861Z,40.03
2018-04-02T09:18:11.913Z,40.42
2018-04-02T09:20:44.118Z,42.09
2018-04-02T09:23:13.394Z,42.52
2018-04-02T09:25:42.580Z,42.18
2018-04-02T09:28:11.906Z,42.14
2018-04-02T09:30:41.012Z,38.99
2018-04-02T09:33:10.098Z,39.09
2018-04-02T09:35:39.691Z,38.97
2018-04-02T09:38:08.797Z,39.48
2018-04-02T09:40:38.140Z,38.74
2018-04-02T09:43:07.375Z,38.71
2018-04-02T09:45:36.579Z,39.19
2018-04-02T09:48:05.905Z,39.11
2018-04-02T09:50:34.982Z,37.57
2018-04-02T09:53:10.070Z,35.82
2018-04-02T09:55:39.304Z,35.99
2018-04-02T09:58:08.634Z,36.02
2018-04-02T10:00:40.899Z,35.41
2018-04-02T10:03:10.398Z,34.29
2018-04-02T10:05:40.598Z,35.12
2018-04-02T10:08:09.865Z,33.92
2018-04-02T10:10:38.961Z,34.30
2018-04-02T10:13:08.175Z,34.48
2018-04-02T10:15:37.305Z,37.02
2018-04-02T10:18:06.407Z,34.94
2018-04-02T10:20:35.650Z,33.79
2018-04-02T10:23:04.860Z,33.50
2018-04-02T10:25:37.025Z,34.14
2018-04-02T10:28:06.163Z,31.66
2018-04-02T10:30:35.372Z,30.31
2018-04-02T10:33:04.588Z,29.81
2018-04-02T10:35:34.013Z,28.97
2018-04-02T10:38:03.432Z,29.02
2018-04-02T10:40:32.778Z,29.59
2018-04-02T10:43:02.080Z,28.29
2018-04-02T10:45:31.269Z,28.29
2018-04-02T10:48:00.624Z,28.43
2018-04-02T10:50:30.223Z,28.01
2018-04-02T10:53:00.057Z,27.98
2018-04-02T10:55:29.011Z,29.02
2018-04-02T10:57:58.087Z,28.69
2018-04-02T11:00:27.529Z,29.30
2018-04-02T11:02:56.699Z,30.32
2018-04-02T11:05:25.889Z,29.35
2018-04-02T11:07:55.339Z,29.20
2018-04-02T11:10:24.695Z,28.57
2018-04-02T11:12:53.917Z,28.90
2018-04-02T11:15:23.082Z,28.12
2018-04-02T11:17:52.210Z,28.99
2018-04-02T11:20:21.582Z,28.99
2018-04-02T11:22:50.746Z,29.92
2018-04-02T11:25:19.909Z,29.35
2018-04-02T11:27:49.639Z,30.23
2018-04-02T11:30:18.789Z,30.37
2018-04-02T11:32:47.947Z,30.67
2018-04-02T11:35:17.397Z,32.28
2018-04-02T11:37:46.450Z,31.20
2018-04-02T11:40:15.731Z,31.78
2018-04-02T11:42:47.971Z,31.47
2018-04-02T11:45:17.199Z,31.64
2018-04-02T11:47:49.477Z,30.79
2018-04-02T11:50:18.707Z,31.38
2018-04-02T11:52:47.925Z,31.80
2018-04-02T11:55:20.131Z,32.45
2018-04-02T11:57:49.303Z,31.94
2018-04-02T12:00:18.653Z,32.01
2018-04-02T12:02:47.795Z,31.18
2018-04-02T12:05:17.110Z,32.59
2018-04-02T12:07:46.454Z,36.03
2018-04-02T12:10:15.490Z,33.13
2018-04-02T12:12:45.194Z,33.40
2018-04-02T12:15:14.539Z,33.27
2018-04-02T12:17:43.611Z,34.10
2018-04-02T12:20:12.743Z,34.87
2018-04-02T12:22:42.679Z,38.72
2018-04-02T12:25:11.876Z,34.37
2018-04-02T12:27:41.150Z,36.65
2018-04-02T12:30:13.226Z,36.98
2018-04-02T12:32:42.472Z,37.41
2018-04-02T12:35:11.733Z,32.67
2018-04-02T12:37:40.819Z,35.99
2018-04-02T12:40:10.075Z,34.93
2018-04-02T12:42:39.288Z,34.40
2018-04-02T12:45:08.429Z,33.58
2018-04-02T12:47:37.588Z,35.24
2018-04-02T12:50:06.734Z,32.51
2018-04-02T12:52:35.947Z,32.06
2018-04-02T12:55:05.080Z,31.76
2018-04-02T12:57:34.189Z,32.26
2018-04-02T13:00:03.489Z,33.01
2018-04-02T13:02:32.514Z,34.33
2018-04-02T13:05:01.663Z,32.88
2018-04-02T13:07:30.958Z,33.62
2018-04-02T13:10:00.318Z,32.73
2018-04-02T13:12:29.349Z,30.53
2018-04-02T13:15:01.526Z,29.96
2018-04-02T13:17:30.763Z,29.00
2018-04-02T13:19:59.821Z,28.33
2018-04-02T13:22:29.231Z,28.03
2018-04-02T13:24:58.421Z,28.20
2018-04-02T13:27:28.167Z,29.47
2018-04-02T13:29:57.371Z,28.62
2018-04-02T13:32:29.661Z,27.33
2018-04-02T13:34:58.957Z,26.59
2018-04-02T13:37:28.151Z,28.45
2018-04-02T13:39:57.423Z,28.51
2018-04-02T13:42:26.506Z,30.17
2018-04-02T13:44:58.672Z,31.66
2018-04-02T13:47:27.893Z,28.33
2018-04-02T13:49:57.195Z,27.72
2018-04-02T13:52:26.583Z,27.58
2018-04-02T13:54:55.792Z,27.48
2018-04-02T13:57:24.998Z,27.77
2018-04-02T13:59:54.325Z,27.54
2018-04-02T14:02:23.524Z,28.20
2018-04-02T14:04:52.691Z,28.18
2018-04-02T14:07:21.821Z,28.62
2018-04-02T14:09:51.026Z,27.69
2018-04-02T14:12:20.267Z,29.41
2018-04-02T14:14:49.517Z,29.95
2018-04-02T14:17:18.770Z,28.84
2018-04-02T14:19:48.010Z,29.70
2018-04-02T14:22:20.051Z,29.20
2018-04-02T14:24:49.491Z,28.16
2018-04-02T14:27:18.562Z,28.92
2018-04-02T14:29:47.650Z,28.14
2018-04-02T14:32:16.912Z,28.54
2018-04-02T14:34:46.118Z,28.01
2018-04-02T14:37:15.179Z,27.80
2018-04-02T14:39:44.580Z,28.34
2018-04-02T14:42:13.737Z,27.98
2018-04-02T14:44:42.833Z,27.95
2018-04-02T14:47:11.941Z,27.17
2018-04-02T14:49:41.323Z,27.17
2018-04-02T14:52:10.560Z,26.79
2018-04-02T14:54:39.774Z,27.28
2018-04-02T14:57:09.120Z,27.93
2018-04-02T14:59:38.459Z,27.35
2018-04-02T15:02:07.518Z,27.31
2018-04-02T15:04:36.724Z,28.23
2018-04-02T15:07:05.847Z,28.38
2018-04-02T15:09:35.146Z,29.25
2018-04-02T15:12:04.331Z,30.42
2018-04-02T15:14:33.609Z,31.78
2018-04-02T15:17:02.719Z,32.67
2018-04-02T15:19:31.978Z,33.47
2018-04-02T15:22:01.120Z,33.21
2018-04-02T15:24:30.364Z,32.13
2018-04-02T15:26:59.644Z,32.30
2018-04-02T15:29:28.843Z,31.31
2018-04-02T15:31:57.898Z,30.35
2018-04-02T15:34:27.011Z,31.89
2018-04-02T15:36:56.229Z,31.52
2018-04-02T15:39:25.340Z,32.55
2018-04-02T15:41:54.414Z,33.32
2018-04-02T15:44:23.698Z,32.40
2018-04-02T15:46:52.788Z,31.22
2018-04-02T15:49:22.014Z,30.16
2018-04-02T15:51:51.110Z,29.20
2018-04-02T15:54:20.346Z,30.13
2018-04-02T15:56:49.437Z,29.25
2018-04-02T15:59:18.677Z,29.49
2018-04-02T16:01:47.770Z,30.04
2018-04-02T16:04:17.038Z,29.54
2018-04-02T16:06:46.132Z,29.73
2018-04-02T16:09:15.555Z,30.24
2018-04-02T16:11:44.729Z,30.61
2018-04-02T16:14:14.239Z,30.86
2018-04-02T16:16:43.606Z,30.79
2018-04-02T16:19:13.182Z,31.34
2018-04-02T16:21:42.399Z,31.89
2018-04-02T16:24:11.644Z,32.35
2018-04-02T16:26:40.694Z,32.74
2018-04-02T16:29:09.944Z,33.64
2018-04-02T16:31:39.110Z,34.06
2018-04-02T16:34:08.282Z,35.37
2018-04-02T16:36:37.696Z,35.86
2018-04-02T16:39:06.909Z,36.58
2018-04-02T16:41:36.281Z,37.05
2018-04-02T16:44:05.439Z,37.47
2018-04-02T16:46:34.634Z,37.70
2018-04-02T16:49:03.919Z,44.17
2018-04-02T16:51:33.112Z,43.85
2018-04-02T16:54:02.306Z,42.17
2018-04-02T16:56:31.485Z,39.65
2018-04-02T16:59:00.734Z,39.03
2018-04-02T17:01:29.831Z,38.83
2018-04-02T17:03:58.901Z,38.75
2018-04-02T17:06:28.825Z,39.10
2018-04-02T17:08:58.143Z,39.07
2018-04-02T17:11:27.239Z,38.73
2018-04-02T17:13:56.301Z,38.94
2018-04-02T17:16:25.324Z,38.84
2018-04-02T17:18:54.425Z,38.73
2018-04-02T17:21:23.839Z,38.87
2018-04-02T17:23:53.133Z,38.89
2018-04-02T17:26:22.280Z,39.08
2018-04-02T17:28:51.623Z,39.76
2018-04-02T17:31:20.828Z,39.92
2018-04-02T17:33:49.875Z,39.95
2018-04-02T17:36:19.175Z,39.41
2018-04-02T17:38:48.517Z,39.43
2018-04-02T17:41:17.571Z,39.52
2018-04-02T17:43:46.998Z,38.97
2018-04-02T17:46:16.103Z,39.51
2018-04-02T17:48:45.150Z,39.63
2018-04-02T17:51:14.457Z,39.84
2018-04-02T17:53:43.614Z,40.54
2018-04-02T17:56:12.701Z,41.03
2018-04-02T17:58:41.655Z,41.48
2018-04-02T18:01:10.695Z,41.28
2018-04-02T18:03:39.738Z,41.92
2018-04-02T18:06:08.757Z,42.48
2018-04-02T18:08:38.091Z,42.81
2018-04-02T18:11:07.146Z,43.22
2018-04-02T18:13:36.331Z,44.25
2018-04-02T18:16:05.584Z,44.65
2018-04-02T18:18:34.717Z,44.59
2018-04-02T18:21:04.018Z,44.77
2018-04-02T18:23:33.160Z,45.24
2018-04-02T18:26:02.326Z,45.42
2018-04-02T18:28:31.422Z,45.81
2018-04-02T18:31:00.387Z,46.43
2018-04-02T18:33:29.360Z,46.99
2018-04-02T18:35:58.606Z,46.57
2018-04-02T18:38:27.759Z,47.66
2018-04-02T18:40:56.790Z,47.73
2018-04-02T18:43:26.261Z,48.21
2018-04-02T18:45:55.388Z,49.38
2018-04-02T18:48:24.654Z,47.23
2018-04-02T18:50:53.990Z,43.87
2018-04-02T18:53:23.198Z,42.15
2018-04-02T18:55:52.491Z,40.89
2018-04-02T18:58:21.486Z,41.09
2018-04-02T19:00:50.586Z,41.49
2018-04-02T19:03:19.885Z,42.33
2018-04-02T19:05:49.126Z,42.20
2018-04-02T19:08:18.165Z,43.05
2018-04-02T19:10:47.226Z,44.13
2018-04-02T19:13:16.591Z,45.43
2018-04-02T19:15:45.883Z,46.62
2018-04-02T19:18:15.035Z,47.66
2018-04-02T19:20:44.283Z,49.45
2018-04-02T19:23:13.441Z,50.19
2018-04-02T19:25:42.573Z,47.97
2018-04-02T19:28:11.614Z,48.45
2018-04-02T19:30:40.793Z,47.04
2018-04-02T19:33:09.776Z,48.48
2018-04-02T19:35:38.814Z,53.28
2018-04-02T19:38:07.894Z,54.56
2018-04-02T19:40:37.183Z,53.83
2018-04-02T19:43:06.370Z,54.19
2018-04-02T19:45:35.439Z,55.16
2018-04-02T19:48:04.562Z,57.69
2018-04-02T19:50:33.795Z,57.89
2018-04-02T19:53:03.079Z,57.78
2018-04-02T19:55:32.193Z,59.88
2018-04-02T19:58:01.339Z,59.12
2018-04-02T20:00:30.580Z,58.62
2018-04-02T20:02:59.689Z,57.88
2018-04-02T20:05:28.742Z,57.78
2018-04-02T20:07:58.069Z,59.24
2018-04-02T20:10:27.181Z,58.32
2018-04-02T20:12:56.155Z,58.28
2018-04-02T20:15:25.110Z,57.60
2018-04-02T20:17:54.197Z,58.24
2018-04-02T20:20:23.511Z,57.50
2018-04-02T20:22:52.655Z,57.06
2018-04-02T20:25:21.699Z,58.22
2018-04-02T20:27:50.930Z,60.59
2018-04-02T20:30:20.118Z,61.14
2018-04-02T20:32:49.240Z,59.74
2018-04-02T20:35:18.518Z,57.55
2018-04-02T20:37:47.582Z,56.94
2018-04-02T20:40:16.840Z,58.09
2018-04-02T20:42:45.973Z,58.86
2018-04-02T20:45:15.785Z,59.86
2018-04-02T20:47:44.849Z,60.79
2018-04-02T20:50:13.985Z,62.01
2018-04-02T20:52:43.309Z,62.48
2018-04-02T20:55:13.053Z,63.55
2018-04-02T20:57:42.114Z,64.22
2018-04-02T21:00:11.519Z,64.15
2018-04-02T21:02:40.926Z,64.55
2018-04-02T21:05:10.059Z,64.68
2018-04-02T21:07:39.189Z,64.47
2018-04-02T21:10:08.650Z,59.62
2018-04-02T21:12:37.809Z,61.05
2018-04-02T21:15:07.098Z,55.34
2018-04-02T21:17:36.230Z,58.37
2018-04-02T21:20:05.416Z,58.85
2018-04-02T21:22:34.644Z,59.53
2018-04-02T21:25:03.938Z,59.73
2018-04-02T21:27:33.013Z,60.65
2018-04-02T21:30:02.119Z,61.31
2018-04-02T21:32:31.173Z,62.14
2018-04-02T21:35:00.617Z,63.27
2018-04-02T21:37:29.716Z,62.38
2018-04-02T21:39:58.772Z,61.53
2018-04-02T21:42:28.133Z,61.03
2018-04-02T21:44:57.204Z,60.04
2018-04-02T21:47:26.399Z,58.08
2018-04-02T21:49:55.725Z,57.63
2018-04-02T21:52:24.770Z,58.32
2018-04-02T21:54:53.999Z,57.71
2018-04-02T21:57:23.298Z,55.59
2018-04-02T21:59:52.371Z,55.49
2018-04-02T22:02:21.570Z,53.44
2018-04-02T22:04:50.769Z,52.68
2018-04-02T22:07:22.049Z,51.04
2018-04-02T22:09:51.205Z,49.53
2018-04-02T22:12:20.339Z,49.22
2018-04-02T22:14:49.530Z,48.87
2018-04-02T22:17:18.950Z,48.60
2018-04-02T22:19:48.054Z,48.64
2018-04-02T22:22:17.239Z,48.55
2018-04-02T22:24:46.446Z,47.76
2018-04-02T22:27:15.517Z,47.65
2018-04-02T22:29:44.726Z,47.51
2018-04-02T22:32:13.890Z,47.43
2018-04-02T22:34:43.104Z,46.80
2018-04-02T22:37:12.379Z,46.34
2018-04-02T22:39:41.811Z,47.08
2018-04-02T22:42:11.151Z,46.26
2018-04-02T22:44:40.547Z,46.14
2018-04-02T22:47:09.698Z,46.16
2018-04-02T22:49:38.891Z,46.38
2018-04-02T22:52:08.185Z,46.58
2018-04-02T22:54:37.423Z,47.42
2018-04-02T22:57:06.608Z,55.75
2018-04-02T22:59:35.946Z,60.42
2018-04-02T23:02:08.089Z,62.30
2018-04-02T23:04:37.248Z,63.71
2018-04-02T23:07:06.677Z,64.19
2018-04-02T23:09:36.012Z,65.10
2018-04-02T23:12:05.046Z,66.02
2018-04-02T23:14:34.255Z,65.88
2018-04-02T23:17:03.451Z,66.44
2018-04-02T23:19:32.689Z,66.27
2018-04-02T23:22:01.906Z,63.65
2018-04-02T23:24:31.114Z,64.16
2018-04-02T23:27:00.234Z,65.05
2018-04-02T23:29:29.566Z,63.83
2018-04-02T23:31:58.695Z,62.80
2018-04-02T23:34:27.843Z,63.58
2018-04-02T23:36:56.933Z,64.62
2018-04-02T23:39:26.361Z,64.80
2018-04-02T23:41:56.053Z,65.78
2018-04-02T23:44:25.133Z,66.82
2018-04-02T23:46:54.555Z,67.40
2018-04-02T23:49:23.787Z,68.12
2018-04-02T23:51:52.942Z,67.66
2018-04-02T23:54:22.196Z,67.27
2018-04-02T23:56:51.225Z,67.61
2018-04-02T23:59:20.326Z,67.92
